createdAt,value
2023-03-26T00:01:54.444Z,100013.13
2023-03-26T00:04:25.579Z,99999.09
2023-03-26T00:06:54.243Z,100002.16
2023-03-26T00:09:22.528Z,100016.09
2023-03-26T00:11:50.380Z,100015.56
2023-03-26T00:14:18.328Z,100014.25
2023-03-26T00:16:47.674Z,100014.88
2023-03-26T00:19:16.062Z,100003.16
2023-03-26T00:21:43.885Z,100017.94
2023-03-26T00:24:17.606Z,100015.94
2023-03-26T00:26:48.763Z,99993.56
2023-03-26T00:29:18.772Z,100023.81
2023-03-26T00:31:47.315Z,100009.22
2023-03-26T00:34:18.629Z,100015.12
2023-03-26T00:36:47.511Z,100011.03
2023-03-26T00:39:17.992Z,99999.91
2023-03-26T00:41:45.942Z,99998.38
2023-03-26T00:44:14.195Z,100005.00
2023-03-26T00:46:42.869Z,99998.25
2023-03-26T00:49:14.930Z,100000.00
2023-03-26T00:51:43.501Z,100008.22
2023-03-26T00:54:12.001Z,100007.47
2023-03-26T00:56:39.964Z,100003.56
2023-03-26T00:59:09.392Z,100003.59
2023-03-26T01:01:37.873Z,100004.28
2023-03-26T01:04:44.959Z,100006.78
2023-03-26T01:07:22.800Z,99998.09
2023-03-26T01:09:51.792Z,99992.69
2023-03-26T01:12:23.133Z,100005.91
2023-03-26T01:14:53.312Z,100000.63
2023-03-26T01:17:23.045Z,99998.47
2023-03-26T01:20:15.222Z,99989.91
2023-03-26T01:22:49.523Z,99988.56
2023-03-26T01:25:17.732Z,99992.69
2023-03-26T01:27:55.880Z,99976.25
2023-03-26T01:30:42.817Z,100005.53
2023-03-26T01:33:22.344Z,99999.50
2023-03-26T01:36:01.099Z,100002.41
2023-03-26T01:38:48.845Z,99988.75
2023-03-26T01:41:52.125Z,100006.56
2023-03-26T01:44:59.837Z,99998.84
2023-03-26T01:47:29.093Z,100003.94
2023-03-26T01:49:57.315Z,100002.94
2023-03-26T01:52:26.412Z,100008.03
2023-03-26T01:54:56.116Z,100000.97
2023-03-26T01:57:37.908Z,100007.72
2023-03-26T02:00:19.526Z,99987.03
2023-03-26T02:02:56.876Z,99984.22
2023-03-26T02:05:47.755Z,99999.66
2023-03-26T02:08:24.350Z,99999.31
2023-03-26T02:10:58.959Z,99997.19
2023-03-26T02:13:27.985Z,99992.44
2023-03-26T02:16:02.071Z,99995.72
2023-03-26T02:18:36.880Z,99975.38
2023-03-26T02:21:20.410Z,99992.44
2023-03-26T02:23:57.865Z,99982.56
2023-03-26T02:26:26.243Z,99989.50
2023-03-26T02:28:54.870Z,99973.06
2023-03-26T02:31:26.540Z,99981.59
2023-03-26T02:33:55.750Z,99985.56
2023-03-26T02:36:30.536Z,99985.22
2023-03-26T02:39:00.460Z,99979.81
2023-03-26T02:41:29.012Z,99935.31
2023-03-26T02:43:57.182Z,99974.88
2023-03-26T02:46:25.993Z,99969.28
2023-03-26T02:48:54.735Z,99977.50
2023-03-26T02:51:23.024Z,99967.66
2023-03-26T02:53:53.853Z,99970.94
2023-03-26T02:56:23.021Z,99981.81
2023-03-26T02:58:52.248Z,99981.97
2023-03-26T03:01:20.233Z,99986.72
2023-03-26T03:03:48.745Z,99974.88
2023-03-26T03:06:19.011Z,99927.97
2023-03-26T03:08:47.446Z,99978.59
2023-03-26T03:11:24.991Z,99983.19
2023-03-26T03:13:54.262Z,99978.72
2023-03-26T03:16:22.279Z,99971.66
2023-03-26T03:18:54.883Z,99976.25
2023-03-26T03:21:25.425Z,99979.19
2023-03-26T03:24:00.254Z,99979.41
2023-03-26T03:26:30.175Z,99982.06
2023-03-26T03:28:58.907Z,99959.72
2023-03-26T03:31:27.483Z,99973.34
2023-03-26T03:33:56.803Z,99983.22
2023-03-26T03:36:28.119Z,99988.09
2023-03-26T03:39:02.316Z,99939.87
2023-03-26T03:41:30.444Z,99961.91
2023-03-26T03:43:59.977Z,99987.53
2023-03-26T03:46:28.589Z,99991.69
2023-03-26T03:48:56.522Z,99973.47
2023-03-26T03:51:25.451Z,99987.94
2023-03-26T03:53:56.005Z,99978.06
2023-03-26T03:56:26.300Z,99990.72
2023-03-26T03:58:58.459Z,99941.59
2023-03-26T04:01:30.904Z,99953.56
2023-03-26T04:03:59.696Z,99993.34
2023-03-26T04:06:30.356Z,99970.69
2023-03-26T04:08:58.309Z,99989.44
2023-03-26T04:11:26.814Z,99979.63
2023-03-26T04:13:56.597Z,99970.06
2023-03-26T04:16:25.703Z,99993.56
2023-03-26T04:18:54.094Z,99991.78
2023-03-26T04:21:22.790Z,99937.06
2023-03-26T04:23:50.716Z,99986.69
2023-03-26T04:26:20.574Z,99988.03
2023-03-26T04:28:55.512Z,99982.50
2023-03-26T04:31:29.562Z,99966.53
2023-03-26T04:34:05.902Z,99984.16
2023-03-26T04:36:35.706Z,99985.66
2023-03-26T04:39:05.352Z,99993.25
2023-03-26T04:41:36.194Z,99994.00
2023-03-26T04:44:04.448Z,99998.09
2023-03-26T04:46:33.815Z,100003.69
2023-03-26T04:49:02.505Z,99951.16
2023-03-26T04:51:42.150Z,100013.87
2023-03-26T04:54:20.278Z,99995.59
2023-03-26T04:56:54.446Z,100012.41
2023-03-26T04:59:30.185Z,100006.75
2023-03-26T05:02:00.218Z,100015.97
2023-03-26T05:04:34.153Z,100010.44
2023-03-26T05:07:03.234Z,100004.84
2023-03-26T05:09:32.150Z,100015.22
2023-03-26T05:12:02.279Z,100012.00
2023-03-26T05:14:32.512Z,100010.59
2023-03-26T05:17:06.079Z,100011.69
2023-03-26T05:19:34.035Z,99975.50
2023-03-26T05:22:03.312Z,99989.19
2023-03-26T05:24:33.085Z,99995.16
2023-03-26T05:27:01.333Z,100003.72
2023-03-26T05:29:29.655Z,100002.09
2023-03-26T05:31:57.500Z,100005.22
2023-03-26T05:34:27.141Z,100001.09
2023-03-26T05:36:55.526Z,99973.41
2023-03-26T05:39:26.581Z,100002.44
2023-03-26T05:41:56.380Z,99997.72
2023-03-26T05:44:25.693Z,100003.97
2023-03-26T05:46:53.643Z,99993.41
2023-03-26T05:49:22.371Z,99992.41
2023-03-26T05:51:50.592Z,99994.97
2023-03-26T05:54:18.938Z,99955.22
2023-03-26T05:56:59.264Z,99985.25
2023-03-26T05:59:32.330Z,99999.78
2023-03-26T06:02:02.375Z,100003.75
2023-03-26T06:04:32.244Z,100001.94
2023-03-26T06:07:02.107Z,100008.94
2023-03-26T06:09:30.429Z,99990.53
2023-03-26T06:11:58.871Z,100011.22
2023-03-26T06:14:27.270Z,100011.38
2023-03-26T06:16:57.654Z,100012.84
2023-03-26T06:19:25.911Z,99989.34
2023-03-26T06:21:54.388Z,100013.75
2023-03-26T06:24:22.766Z,100016.00
2023-03-26T06:26:51.436Z,100016.13
2023-03-26T06:29:19.900Z,100011.69
2023-03-26T06:31:48.543Z,100023.41
2023-03-26T06:34:19.360Z,100015.66
2023-03-26T06:36:48.876Z,100017.22
2023-03-26T06:39:17.244Z,100020.56
2023-03-26T06:41:46.216Z,100022.94
2023-03-26T06:44:15.018Z,100006.75
2023-03-26T06:46:45.460Z,99981.16
2023-03-26T06:49:14.209Z,99997.88
2023-03-26T06:51:43.628Z,99950.44
2023-03-26T06:54:12.387Z,100013.31
2023-03-26T06:56:42.228Z,100014.97
2023-03-26T06:59:11.850Z,100010.22
2023-03-26T07:01:52.175Z,99983.47
2023-03-26T07:04:35.827Z,100010.41
2023-03-26T07:07:28.201Z,100008.25
2023-03-26T07:09:58.902Z,100016.28
2023-03-26T07:12:27.978Z,100002.56
2023-03-26T07:14:57.453Z,100014.00
2023-03-26T07:17:27.422Z,100017.31
2023-03-26T07:19:55.593Z,100020.78
2023-03-26T07:22:25.328Z,100010.00
2023-03-26T07:24:56.382Z,99999.22
2023-03-26T07:27:54.120Z,100012.31
2023-03-26T07:33:53.867Z,99982.50
2023-03-26T07:36:25.012Z,100012.31
2023-03-26T07:39:40.684Z,100009.28
2023-03-26T07:43:01.779Z,100006.63
2023-03-26T07:45:41.408Z,100004.97
2023-03-26T07:48:18.935Z,100005.41
2023-03-26T07:50:48.555Z,100005.81
2023-03-26T07:53:20.032Z,100010.09
2023-03-26T08:18:44.844Z,99967.59
2023-03-26T08:21:22.046Z,99972.88
2023-03-26T08:23:59.269Z,99971.88
2023-03-26T08:26:39.507Z,99967.06
2023-03-26T08:29:29.081Z,99955.63
2023-03-26T08:31:58.129Z,99963.06
2023-03-26T08:34:26.135Z,99962.66
2023-03-26T08:36:53.990Z,99933.31
2023-03-26T08:39:22.670Z,99950.84
2023-03-26T08:42:09.024Z,99918.38
2023-03-26T08:45:08.887Z,99947.06
2023-03-26T08:47:59.401Z,99944.81
2023-03-26T08:51:14.704Z,99933.84
2023-03-26T08:54:33.364Z,99925.37
2023-03-26T08:57:04.141Z,99930.28
2023-03-26T08:59:53.623Z,99923.22
2023-03-26T09:02:46.739Z,99915.47
2023-03-26T09:05:55.077Z,99919.19
2023-03-26T09:11:56.684Z,99900.03
2023-03-26T09:14:25.320Z,99910.28
2023-03-26T09:16:59.305Z,99905.91
2023-03-26T09:19:49.488Z,99913.56
2023-03-26T09:22:34.635Z,99908.63
2023-03-26T09:25:31.442Z,99904.88
2023-03-26T09:28:05.646Z,99896.09
2023-03-26T09:31:08.312Z,99902.50
2023-03-26T09:33:56.447Z,99895.28
2023-03-26T09:36:57.424Z,99886.50
2023-03-26T09:39:33.520Z,99888.75
2023-03-26T09:42:04.030Z,99885.88
2023-03-26T09:44:34.910Z,99880.38
2023-03-26T09:47:21.758Z,99877.75
2023-03-26T09:50:17.817Z,99876.44
2023-03-26T09:53:07.214Z,99865.75
2023-03-26T09:56:05.882Z,99865.00
2023-03-26T09:58:46.255Z,99855.81
2023-03-26T10:01:35.832Z,99848.47
2023-03-26T10:04:07.283Z,99850.38
2023-03-26T10:06:39.677Z,99847.53
2023-03-26T10:09:20.746Z,99838.84
2023-03-26T10:12:07.190Z,99822.69
2023-03-26T10:14:46.576Z,99827.16
2023-03-26T10:17:33.898Z,99813.88
2023-03-26T10:20:28.916Z,99811.25
2023-03-26T10:23:34.361Z,99802.31
2023-03-26T10:26:22.568Z,99801.06
2023-03-26T10:29:04.758Z,99789.88
2023-03-26T10:31:39.406Z,99797.25
2023-03-26T10:34:50.098Z,99790.13
2023-03-26T10:37:36.771Z,99785.91
2023-03-26T10:40:43.076Z,99780.44
2023-03-26T10:43:24.281Z,99771.19
2023-03-26T10:46:14.633Z,99766.44
2023-03-26T10:49:24.487Z,99763.69
2023-03-26T10:51:59.077Z,99757.47
2023-03-26T10:54:44.575Z,99757.56
2023-03-26T10:57:24.373Z,99741.63
2023-03-26T11:00:00.473Z,99748.22
2023-03-26T11:02:44.977Z,99740.91
2023-03-26T11:05:59.036Z,99736.06
2023-03-26T11:08:31.688Z,99725.88
2023-03-26T11:11:22.016Z,99717.72
2023-03-26T11:14:08.531Z,99714.91
2023-03-26T11:16:58.295Z,99708.50
2023-03-26T11:19:38.894Z,99703.41
2023-03-26T11:22:24.852Z,99701.50
2023-03-26T11:25:06.951Z,99696.66
2023-03-26T11:27:48.499Z,99690.03
2023-03-26T11:30:35.803Z,99687.41
2023-03-26T11:33:08.150Z,99679.31
2023-03-26T11:35:40.792Z,99661.84
2023-03-26T11:38:18.952Z,99684.03
2023-03-26T11:40:51.154Z,99668.50
2023-03-26T11:43:28.075Z,99660.50
2023-03-26T11:45:59.511Z,99662.66
2023-03-26T11:48:46.321Z,99652.50
2023-03-26T11:51:25.514Z,99659.13
2023-03-26T11:53:54.641Z,99645.16
2023-03-26T11:56:26.084Z,99632.97
2023-03-26T11:59:55.823Z,99635.63
2023-03-26T12:02:38.546Z,99625.72
2023-03-26T12:05:16.276Z,99617.47
2023-03-26T12:07:52.651Z,99607.91
2023-03-26T12:10:35.254Z,99591.59
2023-03-26T12:13:26.769Z,99589.37
2023-03-26T12:16:01.316Z,99591.00
2023-03-26T12:18:29.370Z,99577.91
2023-03-26T12:21:13.239Z,99581.16
2023-03-26T12:23:58.479Z,99578.19
2023-03-26T12:26:46.494Z,99570.50
2023-03-26T12:29:17.954Z,99556.53
2023-03-26T12:31:52.371Z,99552.25
2023-03-26T12:34:22.553Z,99544.06
2023-03-26T12:37:01.099Z,99540.19
2023-03-26T12:40:10.521Z,99527.53
2023-03-26T12:44:50.754Z,99530.25
2023-03-26T12:45:23.245Z,99513.00
2023-03-26T12:48:03.551Z,99508.78
2023-03-26T12:51:09.215Z,99512.87
2023-03-26T12:53:49.001Z,99507.69
2023-03-26T12:56:40.252Z,99486.75
2023-03-26T12:59:41.745Z,99505.47
2023-03-26T13:02:09.666Z,99490.56
2023-03-26T13:04:58.640Z,99493.62
2023-03-26T13:07:48.172Z,99483.34
2023-03-26T13:10:35.243Z,99481.34
2023-03-26T13:13:38.612Z,99496.09
2023-03-26T13:16:22.423Z,99485.16
2023-03-26T13:18:54.288Z,99482.59
2023-03-26T13:21:39.736Z,99475.28
2023-03-26T13:24:34.801Z,99471.38
2023-03-26T13:27:14.923Z,99465.56
2023-03-26T13:29:57.768Z,99463.41
2023-03-26T13:32:50.714Z,99452.06
2023-03-26T13:35:28.649Z,99425.66
2023-03-26T13:38:07.648Z,99445.44
2023-03-26T13:40:56.013Z,99453.69
2023-03-26T13:43:30.518Z,99449.97
2023-03-26T13:45:58.680Z,99444.66
2023-03-26T13:48:34.803Z,99441.12
2023-03-26T13:51:16.176Z,99404.91
2023-03-26T13:53:53.248Z,99434.09
2023-03-26T13:56:29.672Z,99431.16
2023-03-26T13:59:09.017Z,99425.91
2023-03-26T14:01:43.909Z,99420.66
2023-03-26T14:04:43.951Z,99415.06
2023-03-26T14:07:15.855Z,99391.25
2023-03-26T14:09:48.335Z,99398.69
2023-03-26T14:12:32.542Z,99395.81
2023-03-26T14:15:06.770Z,99392.31
2023-03-26T14:18:00.620Z,99395.00
2023-03-26T14:20:51.664Z,99386.91
2023-03-26T14:23:37.840Z,99379.25
2023-03-26T14:26:43.621Z,99387.28
2023-03-26T14:29:39.121Z,99375.84
2023-03-26T14:32:43.010Z,99373.78
2023-03-26T14:35:35.804Z,99367.44
2023-03-26T14:38:52.358Z,99367.53
2023-03-26T14:41:33.646Z,99360.16
2023-03-26T14:44:10.652Z,99348.94
2023-03-26T14:46:41.402Z,99348.94
2023-03-26T14:49:51.920Z,99349.38
2023-03-26T14:52:41.958Z,99347.78
2023-03-26T14:55:28.251Z,99353.91
2023-03-26T14:58:31.321Z,99351.56
2023-03-26T15:01:20.811Z,99346.66
2023-03-26T15:04:13.419Z,99338.13
2023-03-26T15:06:56.754Z,99328.47
2023-03-26T15:09:43.321Z,99326.00
2023-03-26T15:12:37.189Z,99319.72
2023-03-26T15:15:29.667Z,99312.03
2023-03-26T15:18:19.906Z,99310.91
2023-03-26T15:21:15.602Z,99301.44
2023-03-26T15:23:55.952Z,99306.69
2023-03-26T15:26:30.758Z,99297.31
2023-03-26T15:29:56.576Z,99288.53
2023-03-26T15:32:33.614Z,99288.16
2023-03-26T15:35:23.908Z,99282.19
2023-03-26T15:38:23.898Z,99277.53
2023-03-26T15:40:52.078Z,99267.91
2023-03-26T15:43:26.705Z,99268.81
2023-03-26T15:46:19.586Z,99272.13
2023-03-26T15:49:03.855Z,99259.59
2023-03-26T16:04:14.716Z,99250.12
2023-03-26T16:06:57.329Z,99252.56
2023-03-26T16:09:47.521Z,99242.53
2023-03-26T16:12:16.348Z,99243.19
2023-03-26T16:15:04.077Z,99235.06
2023-03-26T16:18:04.131Z,99211.25
2023-03-26T16:20:50.811Z,99230.00
2023-03-26T16:23:24.617Z,99219.59
2023-03-26T16:25:57.195Z,99215.59
2023-03-26T16:28:48.238Z,99212.44
2023-03-26T16:31:36.387Z,99217.69
2023-03-26T16:34:09.284Z,99213.12
2023-03-26T16:36:43.097Z,99215.06
2023-03-26T16:39:50.033Z,99209.44
2023-03-26T16:42:32.008Z,99201.63
2023-03-26T16:44:59.901Z,99196.59
2023-03-26T16:47:44.825Z,99193.66
2023-03-26T16:50:35.827Z,99190.53
2023-03-26T16:53:29.633Z,99187.78
2023-03-26T16:56:12.727Z,99175.19
2023-03-26T16:58:40.995Z,99169.03
2023-03-26T17:01:27.832Z,99174.28
2023-03-26T17:04:17.258Z,99173.00
2023-03-26T17:07:14.069Z,99160.75
2023-03-26T17:10:08.664Z,99168.38
2023-03-26T17:12:53.331Z,99168.72
2023-03-26T17:15:46.203Z,99164.97
2023-03-26T17:18:14.235Z,99161.41
2023-03-26T17:21:12.320Z,99162.72
2023-03-26T17:23:55.385Z,99160.19
2023-03-26T17:26:47.043Z,99164.59
2023-03-26T17:29:27.437Z,99167.16
2023-03-26T17:32:08.974Z,99161.38
2023-03-26T17:34:49.265Z,99165.34
2023-03-26T17:37:18.977Z,99161.03
2023-03-26T17:39:47.317Z,99158.28
2023-03-26T17:42:27.520Z,99155.63
2023-03-26T17:44:57.748Z,99161.28
2023-03-26T17:47:33.416Z,99139.44
2023-03-26T17:50:13.539Z,99150.41
2023-03-26T17:53:07.466Z,99159.56
2023-03-26T17:55:39.352Z,99156.44
2023-03-26T17:58:20.508Z,99152.38
2023-03-26T18:01:02.652Z,99154.56
2023-03-26T18:03:40.702Z,99145.53
2023-03-26T18:06:18.330Z,99135.59
2023-03-26T18:09:05.978Z,99128.91
2023-03-26T18:12:11.503Z,99156.53
2023-03-26T18:15:21.472Z,99158.62
2023-03-26T18:18:02.907Z,99152.12
2023-03-26T18:20:32.493Z,99144.72
2023-03-26T18:23:10.011Z,99144.19
2023-03-26T18:25:41.092Z,99137.94
2023-03-26T18:28:14.271Z,99133.44
2023-03-26T18:30:48.599Z,99097.28
2023-03-26T18:33:17.175Z,99137.16
2023-03-26T18:35:52.108Z,99101.78
2023-03-26T18:38:34.986Z,99134.59
2023-03-26T18:41:08.535Z,99139.00
2023-03-26T18:43:44.442Z,99120.28
2023-03-26T18:46:14.971Z,99110.94
2023-03-26T18:48:44.315Z,99133.00
2023-03-26T18:51:13.329Z,99128.38
2023-03-26T18:53:50.273Z,99128.97
2023-03-26T18:56:27.671Z,99128.12
2023-03-26T18:58:58.956Z,99112.66
2023-03-26T19:01:33.331Z,99123.19
2023-03-26T19:04:05.903Z,99122.50
2023-03-26T19:06:40.068Z,99127.22
2023-03-26T19:09:30.269Z,99126.19
2023-03-26T19:12:15.716Z,99128.50
2023-03-26T19:15:09.427Z,99106.63
2023-03-26T19:17:44.479Z,99124.66
2023-03-26T19:20:37.153Z,99124.53
2023-03-26T19:23:09.120Z,99114.72
2023-03-26T19:25:44.251Z,99109.75
2023-03-26T19:28:29.154Z,99109.09
2023-03-26T19:31:06.542Z,99101.00
2023-03-26T19:33:39.741Z,99099.25
2023-03-26T19:36:19.551Z,99085.94
2023-03-26T19:38:53.559Z,99075.47
2023-03-26T19:41:31.241Z,99088.16
2023-03-26T19:44:02.028Z,99084.34
2023-03-26T19:46:34.338Z,99056.25
2023-03-26T19:49:46.447Z,99073.59
2023-03-26T19:52:41.430Z,99100.28
2023-03-26T19:55:21.443Z,99095.66
2023-03-26T19:57:49.740Z,99110.00
2023-03-26T20:00:19.194Z,99107.66
2023-03-26T20:02:48.879Z,99113.34
2023-03-26T20:05:26.314Z,99118.41
2023-03-26T20:07:58.405Z,99118.94
2023-03-26T20:10:27.206Z,99121.91
2023-03-26T20:12:55.827Z,99111.47
2023-03-26T20:15:26.379Z,99107.06
2023-03-26T20:17:55.307Z,99104.88
2023-03-26T20:20:27.690Z,99104.59
2023-03-26T20:22:56.033Z,99092.81
2023-03-26T20:25:30.973Z,99084.31
2023-03-26T20:28:02.557Z,99084.84
2023-03-26T20:30:37.848Z,99079.09
2023-03-26T20:33:12.065Z,99068.59
2023-03-26T20:35:42.933Z,99007.69
2023-03-26T20:38:12.014Z,99036.59
2023-03-26T20:40:40.350Z,99038.19
2023-03-26T20:43:12.527Z,99029.34
2023-03-26T20:45:41.157Z,99028.84
2023-03-26T20:48:10.617Z,99026.25
2023-03-26T20:51:01.855Z,98989.78
2023-03-26T20:53:30.585Z,99042.44
2023-03-26T20:55:58.480Z,99040.41
2023-03-26T20:58:31.463Z,99043.25
2023-03-26T21:01:02.245Z,99040.97
2023-03-26T21:03:30.505Z,99037.91
2023-03-26T21:06:06.538Z,99041.19
2023-03-26T21:08:35.445Z,99041.41
2023-03-26T21:11:05.584Z,99007.66
2023-03-26T21:13:40.177Z,99039.94
2023-03-26T21:16:11.207Z,99039.72
2023-03-26T21:18:39.932Z,99030.25
2023-03-26T21:21:37.105Z,99030.09
2023-03-26T21:24:15.243Z,99034.06
2023-03-26T21:27:26.520Z,99032.66
2023-03-26T21:29:58.272Z,99043.34
2023-03-26T21:32:26.920Z,99054.69
2023-03-26T21:34:59.176Z,99006.25
2023-03-26T21:37:28.131Z,99053.12
2023-03-26T21:39:56.785Z,99054.16
2023-03-26T21:42:29.266Z,99047.59
2023-03-26T21:44:57.819Z,99040.09
2023-03-26T21:47:26.475Z,99032.59
2023-03-26T21:49:55.524Z,99007.84
2023-03-26T21:52:24.650Z,99018.97
2023-03-26T21:54:53.005Z,99000.53
2023-03-26T21:57:55.019Z,99004.75
2023-03-26T22:00:42.824Z,98993.41
2023-03-26T22:03:33.253Z,98984.88
2023-03-26T22:06:09.581Z,98978.94
2023-03-26T22:08:40.838Z,98969.97
2023-03-26T22:11:11.371Z,98956.94
2023-03-26T22:13:39.787Z,98951.63
2023-03-26T22:16:10.762Z,98947.56
2023-03-26T22:18:39.025Z,98914.97
2023-03-26T22:21:07.192Z,98941.91
2023-03-26T22:23:36.762Z,98943.16
2023-03-26T22:26:06.038Z,98962.13
2023-03-26T22:28:34.397Z,98961.91
2023-03-26T22:31:08.881Z,98953.81
2023-03-26T22:33:40.177Z,98896.59
2023-03-26T22:36:22.100Z,98859.59
2023-03-26T22:38:54.162Z,98858.00
2023-03-26T22:41:22.851Z,98898.97
2023-03-26T22:43:54.786Z,98864.53
2023-03-26T22:46:23.800Z,98913.47
2023-03-26T22:48:51.796Z,98927.28
2023-03-26T22:51:19.686Z,98922.66
2023-03-26T22:53:47.898Z,98930.38
2023-03-26T22:56:17.182Z,98935.34
2023-03-26T22:58:45.113Z,98938.34
2023-03-26T23:01:17.985Z,98890.38
2023-03-26T23:03:46.696Z,98920.13
2023-03-26T23:06:16.207Z,98918.50
2023-03-26T23:08:44.776Z,98925.59
2023-03-26T23:11:15.165Z,98908.16
2023-03-26T23:13:45.447Z,98916.25
2023-03-26T23:16:14.339Z,98916.69
2023-03-26T23:18:43.126Z,98911.03
2023-03-26T23:21:19.707Z,98899.97
2023-03-26T23:23:49.836Z,98842.00
2023-03-26T23:26:18.170Z,98883.13
2023-03-26T23:28:46.203Z,98877.09
2023-03-26T23:31:14.377Z,98870.12
2023-03-26T23:33:51.501Z,98874.28
2023-03-26T23:36:23.688Z,98857.13
2023-03-26T23:38:53.094Z,98874.03
2023-03-26T23:41:23.440Z,98856.13
2023-03-26T23:43:55.597Z,98852.88
2023-03-26T23:46:25.803Z,98830.41
2023-03-26T23:48:55.109Z,98836.44
2023-03-26T23:51:24.196Z,98844.31
2023-03-26T23:53:52.794Z,98836.16
2023-03-26T23:56:21.197Z,98823.22
2023-03-26T23:58:49.211Z,98816.88
